PWSweather.com
Personal Weather Stations
Station Observations
BLACKWELL
Blackwell, AlfretonGB DE55

BlackwellAlfretonGB DE55

Lat: 53.12076, Lon: -1.354978

Elevation: 410

Station Type: Vantage Pro

High Low Average
Temperature 55.9°F13.3°C 37.9°F3.3°C 47.4°F8.6°C
Dew Point 45.0°F7.2°C 35.4°F1.9°C 40.9°F4.9°C
Winds 2.0 mph 3.2 kmh Calm Calm Calm SECalm SE
Wind Gusts 6.0 mph9.7 kmh -- 2.0 mph3.2 kmh
Humidity 93% 60% 79%
Pressure 30.33 in1027.1 mb 30.09 in1019.0 mb -
Precipitation 0.04 in1.0 mm - -
Hour Temp Dew Point Humidity Winds Wind Gusts Pressure Precip Precip Rate Daily Precip Total
12:32 AM 44.8°F7.1°C 39.6°F4.2°C 82% Calm Calm 4.0 mph6.4 kmh 30.19 in1022.4 mb 0.00 in0.0 mm 0.00 in0.0 mm 0.00 in0.0 mm
01:32 AM 42.4°F5.8°C 38.7°F3.7°C 86% Calm Calm -- 30.21 in1023.0 mb 0.00 in0.0 mm 0.00 in0.0 mm 0.00 in0.0 mm
02:32 AM 40.3°F4.6°C 37.4°F3.0°C 89% Calm Calm -- 30.23 in1023.7 mb 0.00 in0.0 mm 0.00 in0.0 mm 0.00 in0.0 mm
03:32 AM 39.7°F4.3°C 37.0°F2.8°C 90% Calm Calm -- 30.23 in1023.7 mb 0.00 in0.0 mm 0.00 in0.0 mm 0.00 in0.0 mm
04:32 AM 39.0°F3.9°C 36.3°F2.4°C 90% Calm Calm -- 30.25 in1024.4 mb 0.00 in0.0 mm 0.00 in0.0 mm 0.00 in0.0 mm
05:32 AM 38.7°F3.7°C 36.5°F2.5°C 92% Calm Calm -- 30.27 in1025.1 mb 0.00 in0.0 mm 0.00 in0.0 mm 0.00 in0.0 mm
06:32 AM 37.9°F3.3°C 35.4°F1.9°C 91% Calm Calm -- 30.29 in1025.7 mb 0.00 in0.0 mm 0.00 in0.0 mm 0.00 in0.0 mm
07:32 AM 39.0°F3.9°C 37.2°F2.9°C 93% Calm Calm -- 30.31 in1026.4 mb 0.00 in0.0 mm 0.00 in0.0 mm 0.00 in0.0 mm
08:32 AM 43.5°F6.4°C 40.1°F4.5°C 88% Calm Calm 1.0 mph1.6 kmh 30.33 in1027.1 mb 0.00 in0.0 mm 0.00 in0.0 mm 0.00 in0.0 mm
09:32 AM 48.6°F9.2°C 38.8°F3.8°C 69% Calm Calm 2.0 mph3.2 kmh 30.33 in1027.1 mb 0.00 in0.0 mm 0.00 in0.0 mm 0.00 in0.0 mm
10:32 AM 53.2°F11.8°C 40.6°F4.8°C 62% Calm Calm 5.0 mph8.0 kmh 30.32 in1026.8 mb 0.00 in0.0 mm 0.00 in0.0 mm 0.00 in0.0 mm
11:32 AM 54.7°F12.6°C 41.0°F5.0°C 60% Calm Calm 5.0 mph8.0 kmh 30.30 in1026.1 mb 0.00 in0.0 mm 0.00 in0.0 mm 0.00 in0.0 mm
12:32 PM 53.8°F12.1°C 41.0°F5.0°C 62% Calm Calm 3.0 mph4.8 kmh 30.31 in1026.4 mb 0.00 in0.0 mm 0.00 in0.0 mm 0.00 in0.0 mm
01:32 PM 53.8°F12.1°C 41.5°F5.3°C 63% Calm Calm 3.0 mph4.8 kmh 30.30 in1026.1 mb 0.00 in0.0 mm 0.00 in0.0 mm 0.00 in0.0 mm
02:32 PM 55.9°F13.3°C 44.2°F6.8°C 65% Calm Calm 3.0 mph4.8 kmh 30.29 in1025.7 mb 0.00 in0.0 mm 0.00 in0.0 mm 0.00 in0.0 mm
03:32 PM 53.2°F11.8°C 44.4°F6.9°C 72% Calm Calm 2.0 mph3.2 kmh 30.27 in1025.1 mb 0.00 in0.0 mm 0.00 in0.0 mm 0.00 in0.0 mm
04:32 PM 52.3°F11.3°C 44.2°F6.8°C 74% Calm Calm 1.0 mph1.6 kmh 30.25 in1024.4 mb 0.00 in0.0 mm 0.00 in0.0 mm 0.00 in0.0 mm
05:32 PM 52.0°F11.1°C 43.9°F6.6°C 74% Calm Calm 2.0 mph3.2 kmh 30.24 in1024.0 mb 0.00 in0.0 mm 0.00 in0.0 mm 0.00 in0.0 mm
06:32 PM 50.9°F10.5°C 44.2°F6.8°C 78% Calm Calm 1.0 mph1.6 kmh 30.23 in1023.7 mb 0.00 in0.0 mm 0.00 in0.0 mm 0.00 in0.0 mm
07:32 PM 49.8°F9.9°C 43.9°F6.6°C 80% Calm Calm 1.0 mph1.6 kmh 30.21 in1023.0 mb 0.01 in0.3 mm 0.00 in0.0 mm 0.01 in0.3 mm
08:32 PM 49.5°F9.7°C 44.1°F6.7°C 82% Calm Calm 2.0 mph3.2 kmh 30.19 in1022.4 mb 0.01 in0.3 mm 0.00 in0.0 mm 0.02 in0.5 mm
09:32 PM 47.8°F8.8°C 43.9°F6.6°C 86% Calm Calm 3.0 mph4.8 kmh 30.16 in1021.3 mb 0.02 in0.5 mm 0.00 in0.0 mm 0.04 in1.0 mm
10:32 PM 48.4°F9.1°C 43.3°F6.3°C 83% 1.0 mph SW1.6 kmh SW 4.0 mph6.4 kmh 30.13 in1020.3 mb 0.00 in0.0 mm 0.00 in0.0 mm 0.04 in1.0 mm
11:32 PM 48.6°F9.2°C 45.0°F7.2°C 87% 2.0 mph SW3.2 kmh SW 6.0 mph9.7 kmh 30.09 in1019.0 mb 0.00 in0.0 mm 0.00 in0.0 mm 0.02 in0.5 mm